sensor_id;sensor_type;location;lat;lon;timestamp;pressure;altitude;pressure_sealevel;temperature;humidity
46506;BME280;32220;49.808;9.968;2024-02-15T09:13:33;99213.03;;;12.09;100.00
46506;BME280;32220;49.808;9.968;2024-02-15T09:16:04;99216.31;;;12.68;100.00
46506;BME280;32220;49.808;9.968;2024-02-15T09:18:31;99205.66;;;13.21;100.00
46506;BME280;32220;49.808;9.968;2024-02-15T09:20:59;99181.19;;;13.67;100.00
46506;BME280;32220;49.808;9.968;2024-02-15T09:23:27;99226.03;;;14.48;100.00
46506;BME280;32220;49.808;9.968;2024-02-15T09:25:54;99222.47;;;14.84;100.00
46506;BME280;32220;49.808;9.968;2024-02-15T09:28:22;99211.50;;;15.23;100.00
46506;BME280;32220;49.808;9.968;2024-02-15T09:30:51;99231.31;;;15.78;100.00
46506;BME280;32220;49.808;9.968;2024-02-15T09:33:19;99231.09;;;16.26;100.00
46506;BME280;32220;49.808;9.968;2024-02-15T09:35:47;99222.91;;;16.72;100.00
46506;BME280;32220;49.808;9.968;2024-02-15T09:38:14;99212.72;;;16.98;98.50
46506;BME280;32220;49.808;9.968;2024-02-15T09:40:43;99232.56;;;17.48;93.87
46506;BME280;32220;49.808;9.968;2024-02-15T09:43:11;99224.84;;;17.66;91.98
46506;BME280;32220;49.808;9.968;2024-02-15T09:45:40;99240.44;;;18.02;90.25
46506;BME280;32220;49.808;9.968;2024-02-15T09:48:10;99251.34;;;18.20;83.86
46506;BME280;32220;49.808;9.968;2024-02-15T09:50:40;99251.84;;;18.35;80.95
46506;BME280;32220;49.808;9.968;2024-02-15T09:53:09;99228.16;;;18.40;80.05
46506;BME280;32220;49.808;9.968;2024-02-15T09:55:39;99236.16;;;18.70;80.68
46506;BME280;32220;49.808;9.968;2024-02-15T09:58:08;99241.16;;;18.84;77.10
46506;BME280;32220;49.808;9.968;2024-02-15T10:00:36;99243.56;;;18.97;77.00
46506;BME280;32220;49.808;9.968;2024-02-15T10:03:05;99264.19;;;18.96;71.30
46506;BME280;32220;49.808;9.968;2024-02-15T10:05:35;99255.03;;;19.09;72.28
46506;BME280;32220;49.808;9.968;2024-02-15T10:08:06;99253.19;;;19.19;72.19
46506;BME280;32220;49.808;9.968;2024-02-15T10:10:37;99237.66;;;19.22;72.23
46506;BME280;32220;49.808;9.968;2024-02-15T10:13:04;99258.00;;;19.25;68.77
46506;BME280;32220;49.808;9.968;2024-02-15T10:15:34;99254.34;;;19.16;67.01
46506;BME280;32220;49.808;9.968;2024-02-15T10:18:03;99266.63;;;19.19;66.90
46506;BME280;32220;49.808;9.968;2024-02-15T10:20:31;99263.22;;;19.17;65.38
46506;BME280;32220;49.808;9.968;2024-02-15T10:23:12;99241.19;;;19.13;65.91
46506;BME280;32220;49.808;9.968;2024-02-15T10:25:44;99248.81;;;19.47;67.52
46506;BME280;32220;49.808;9.968;2024-02-15T10:28:12;99256.72;;;19.67;65.54
46506;BME280;32220;49.808;9.968;2024-02-15T10:30:43;99233.75;;;19.92;65.32
46506;BME280;32220;49.808;9.968;2024-02-15T10:33:18;99237.66;;;20.54;63.35
46506;BME280;32220;49.808;9.968;2024-02-15T10:35:46;99248.03;;;20.94;57.87
46506;BME280;32220;49.808;9.968;2024-02-15T10:38:15;99271.97;;;21.60;57.50
46506;BME280;32220;49.808;9.968;2024-02-15T10:40:43;99250.47;;;22.12;56.88
46506;BME280;32220;49.808;9.968;2024-02-15T10:43:13;99267.53;;;22.54;56.74
46506;BME280;32220;49.808;9.968;2024-02-15T10:45:41;99268.53;;;22.87;54.01
46506;BME280;32220;49.808;9.968;2024-02-15T10:48:09;99272.75;;;22.82;51.28
46506;BME280;32220;49.808;9.968;2024-02-15T10:50:39;99257.91;;;22.86;51.88
46506;BME280;32220;49.808;9.968;2024-02-15T10:53:13;99266.78;;;23.28;51.55
46506;BME280;32220;49.808;9.968;2024-02-15T10:55:53;99279.19;;;23.72;50.13
46506;BME280;32220;49.808;9.968;2024-02-15T10:58:28;99263.94;;;23.95;49.71
46506;BME280;32220;49.808;9.968;2024-02-15T11:01:02;99261.34;;;24.42;48.30
46506;BME280;32220;49.808;9.968;2024-02-15T11:03:35;99264.38;;;26.08;46.98
46506;BME280;32220;49.808;9.968;2024-02-15T11:06:05;99299.81;;;27.03;42.31
46506;BME280;32220;49.808;9.968;2024-02-15T11:08:34;99283.03;;;28.00;40.30
46506;BME280;32220;49.808;9.968;2024-02-15T11:11:04;99302.72;;;28.51;40.36
46506;BME280;32220;49.808;9.968;2024-02-15T11:13:31;99309.28;;;28.63;38.59
46506;BME280;32220;49.808;9.968;2024-02-15T11:15:59;99307.25;;;29.87;37.34
46506;BME280;32220;49.808;9.968;2024-02-15T11:18:44;99313.56;;;30.60;36.61
46506;BME280;32220;49.808;9.968;2024-02-15T11:21:15;99312.38;;;31.90;34.92
46506;BME280;32220;49.808;9.968;2024-02-15T11:23:43;99292.75;;;32.42;34.53
46506;BME280;32220;49.808;9.968;2024-02-15T11:26:45;99298.75;;;33.31;34.42
46506;BME280;32220;49.808;9.968;2024-02-15T11:29:49;99317.94;;;33.91;30.10
46506;BME280;32220;49.808;9.968;2024-02-15T11:32:36;99297.50;;;33.45;31.99
46506;BME280;32220;49.808;9.968;2024-02-15T11:35:06;99254.53;;;32.66;32.84
46506;BME280;32220;49.808;9.968;2024-02-15T11:37:55;99261.44;;;32.32;33.65
46506;BME280;32220;49.808;9.968;2024-02-15T11:40:25;99274.06;;;32.94;32.52
46506;BME280;32220;49.808;9.968;2024-02-15T11:42:57;99267.78;;;34.07;30.57
46506;BME280;32220;49.808;9.968;2024-02-15T11:45:44;99253.88;;;34.95;29.19
46506;BME280;32220;49.808;9.968;2024-02-15T11:48:16;99287.47;;;36.11;27.52
46506;BME280;32220;49.808;9.968;2024-02-15T11:50:47;99282.84;;;36.66;25.62
46506;BME280;32220;49.808;9.968;2024-02-15T11:53:36;99239.78;;;36.27;26.70
46506;BME280;32220;49.808;9.968;2024-02-15T11:56:06;99255.22;;;36.28;26.98
46506;BME280;32220;49.808;9.968;2024-02-15T11:58:38;99231.25;;;35.95;26.83
46506;BME280;32220;49.808;9.968;2024-02-15T12:01:20;99204.69;;;35.89;27.35
46506;BME280;32220;49.808;9.968;2024-02-15T12:04:25;99236.75;;;36.28;26.79
46506;BME280;32220;49.808;9.968;2024-02-15T12:07:13;99269.78;;;36.79;25.42
46506;BME280;32220;49.808;9.968;2024-02-15T12:10:00;99231.16;;;36.62;25.37
46506;BME280;32220;49.808;9.968;2024-02-15T12:12:53;99249.34;;;37.23;25.03
46506;BME280;32220;49.808;9.968;2024-02-15T12:15:41;99273.72;;;37.80;23.33
46506;BME280;32220;49.808;9.968;2024-02-15T12:18:51;99223.13;;;37.53;22.42
46506;BME280;32220;49.808;9.968;2024-02-15T12:24:54;99238.56;;;37.49;23.38
46506;BME280;32220;49.808;9.968;2024-02-15T12:27:52;99244.25;;;37.64;23.90
46506;BME280;32220;49.808;9.968;2024-02-15T12:30:56;99219.53;;;37.25;22.99
46506;BME280;32220;49.808;9.968;2024-02-15T12:33:24;99237.59;;;36.29;23.71
46506;BME280;32220;49.808;9.968;2024-02-15T12:36:09;99235.03;;;35.44;24.94
46506;BME280;32220;49.808;9.968;2024-02-15T12:38:37;99183.88;;;34.91;24.75
46506;BME280;32220;49.808;9.968;2024-02-15T12:41:18;99220.22;;;33.95;25.31
46506;BME280;32220;49.808;9.968;2024-02-15T12:43:46;99216.41;;;33.96;24.98
46506;BME280;32220;49.808;9.968;2024-02-15T12:46:19;99153.25;;;33.54;25.67
46506;BME280;32220;49.808;9.968;2024-02-15T12:48:47;99206.25;;;34.43;25.31
46506;BME280;32220;49.808;9.968;2024-02-15T12:51:16;99154.47;;;34.05;25.55
46506;BME280;32220;49.808;9.968;2024-02-15T12:53:44;99151.72;;;33.70;25.53
46506;BME280;32220;49.808;9.968;2024-02-15T13:00:31;99144.16;;;33.42;26.77
46506;BME280;32220;49.808;9.968;2024-02-15T13:06:08;99172.75;;;32.26;26.62
46506;BME280;32220;49.808;9.968;2024-02-15T13:08:46;99185.03;;;31.04;27.65
46506;BME280;32220;49.808;9.968;2024-02-15T13:11:15;99172.56;;;30.26;28.79
46506;BME280;32220;49.808;9.968;2024-02-15T13:13:57;99130.19;;;29.44;30.48
46506;BME280;32220;49.808;9.968;2024-02-15T13:16:25;99096.81;;;29.09;30.85
46506;BME280;32220;49.808;9.968;2024-02-15T13:18:56;99133.09;;;29.10;30.65
46506;BME280;32220;49.808;9.968;2024-02-15T13:21:26;99137.91;;;29.01;30.68
46506;BME280;32220;49.808;9.968;2024-02-15T13:23:56;99115.91;;;29.16;30.26
46506;BME280;32220;49.808;9.968;2024-02-15T13:26:41;99127.44;;;29.31;30.44
46506;BME280;32220;49.808;9.968;2024-02-15T13:29:08;99139.88;;;29.53;29.95
46506;BME280;32220;49.808;9.968;2024-02-15T13:31:44;99095.97;;;29.02;30.57
46506;BME280;32220;49.808;9.968;2024-02-15T13:34:13;99112.66;;;28.66;30.60
46506;BME280;32220;49.808;9.968;2024-02-15T13:36:59;99099.84;;;28.12;31.30
46506;BME280;32220;49.808;9.968;2024-02-15T13:39:28;99127.22;;;27.70;32.08
46506;BME280;32220;49.808;9.968;2024-02-15T13:41:59;99065.78;;;26.83;32.47
46506;BME280;32220;49.808;9.968;2024-02-15T13:44:28;99092.72;;;26.57;33.09
46506;BME280;32220;49.808;9.968;2024-02-15T13:46:57;99046.94;;;25.74;33.58
46506;BME280;32220;49.808;9.968;2024-02-15T13:49:26;99095.22;;;25.64;34.83
46506;BME280;32220;49.808;9.968;2024-02-15T13:51:56;99049.19;;;25.03;35.14
46506;BME280;32220;49.808;9.968;2024-02-15T13:54:30;99029.25;;;24.74;35.94
46506;BME280;32220;49.808;9.968;2024-02-15T13:57:01;99056.56;;;24.87;36.47
46506;BME280;32220;49.808;9.968;2024-02-15T13:59:29;99019.00;;;24.46;36.14
46506;BME280;32220;49.808;9.968;2024-02-15T14:01:56;99051.72;;;24.59;36.56
46506;BME280;32220;49.808;9.968;2024-02-15T14:04:27;99038.13;;;24.67;37.12
46506;BME280;32220;49.808;9.968;2024-02-15T14:06:55;98979.56;;;24.44;37.40
46506;BME280;32220;49.808;9.968;2024-02-15T14:09:27;99027.94;;;24.69;36.87
46506;BME280;32220;49.808;9.968;2024-02-15T14:11:57;98974.84;;;24.23;37.82
46506;BME280;32220;49.808;9.968;2024-02-15T14:14:25;99023.56;;;24.23;37.64
46506;BME280;32220;49.808;9.968;2024-02-15T14:16:53;98972.28;;;23.59;37.99
46506;BME280;32220;49.808;9.968;2024-02-15T14:19:21;99011.34;;;23.57;38.83
46506;BME280;32220;49.808;9.968;2024-02-15T14:21:52;99019.16;;;23.36;39.33
46506;BME280;32220;49.808;9.968;2024-02-15T14:24:21;98986.47;;;22.90;39.40
46506;BME280;32220;49.808;9.968;2024-02-15T14:26:49;98974.31;;;22.53;39.85
46506;BME280;32220;49.808;9.968;2024-02-15T14:29:18;98967.03;;;22.30;40.55
46506;BME280;32220;49.808;9.968;2024-02-15T14:31:52;98954.06;;;22.09;40.85
46506;BME280;32220;49.808;9.968;2024-02-15T14:34:37;99001.28;;;22.13;41.30
46506;BME280;32220;49.808;9.968;2024-02-15T14:37:07;98969.78;;;21.79;41.48
46506;BME280;32220;49.808;9.968;2024-02-15T14:39:39;98932.25;;;21.36;41.59
46506;BME280;32220;49.808;9.968;2024-02-15T14:42:07;98995.47;;;21.49;42.10
46506;BME280;32220;49.808;9.968;2024-02-15T14:44:36;98965.78;;;21.15;42.43
46506;BME280;32220;49.808;9.968;2024-02-15T14:47:05;99002.75;;;21.23;42.76
46506;BME280;32220;49.808;9.968;2024-02-15T14:49:33;98995.00;;;21.02;43.13
46506;BME280;32220;49.808;9.968;2024-02-15T14:52:03;98968.69;;;20.70;43.46
46506;BME280;32220;49.808;9.968;2024-02-15T14:54:33;98972.03;;;20.64;44.07
46506;BME280;32220;49.808;9.968;2024-02-15T14:57:02;98970.41;;;20.54;44.36
46506;BME280;32220;49.808;9.968;2024-02-15T14:59:31;98922.84;;;20.19;44.37
46506;BME280;32220;49.808;9.968;2024-02-15T15:02:02;98963.75;;;20.40;44.75
46506;BME280;32220;49.808;9.968;2024-02-15T15:04:35;98962.22;;;20.37;45.75
46506;BME280;32220;49.808;9.968;2024-02-15T15:07:23;98963.09;;;20.28;45.89
46506;BME280;32220;49.808;9.968;2024-02-15T15:10:19;98975.09;;;20.16;45.65
46506;BME280;32220;49.808;9.968;2024-02-15T15:13:20;98976.03;;;20.07;46.04
46506;BME280;32220;49.808;9.968;2024-02-15T15:20:13;98950.41;;;19.67;47.02
46506;BME280;32220;49.808;9.968;2024-02-15T15:22:43;98933.53;;;19.48;47.34
46506;BME280;32220;49.808;9.968;2024-02-15T15:31:45;98921.25;;;19.18;48.92
46506;BME280;32220;49.808;9.968;2024-02-15T15:34:16;98887.78;;;18.85;49.06
46506;BME280;32220;49.808;9.968;2024-02-15T15:36:53;98918.50;;;19.00;49.37
46506;BME280;32220;49.808;9.968;2024-02-15T15:39:26;98925.00;;;18.97;49.54
46506;BME280;32220;49.808;9.968;2024-02-15T15:41:55;98913.78;;;18.75;49.81
46506;BME280;32220;49.808;9.968;2024-02-15T15:44:23;98904.09;;;18.54;49.66
46506;BME280;32220;49.808;9.968;2024-02-15T15:46:53;98933.03;;;18.60;50.19
46506;BME280;32220;49.808;9.968;2024-02-15T15:49:25;98904.53;;;18.30;50.11
46506;BME280;32220;49.808;9.968;2024-02-15T15:51:54;98913.31;;;18.23;50.50
46506;BME280;32220;49.808;9.968;2024-02-15T15:54:22;98919.25;;;18.17;50.70
46506;BME280;32220;49.808;9.968;2024-02-15T15:56:49;98882.13;;;17.83;50.76
46506;BME280;32220;49.808;9.968;2024-02-15T15:59:17;98915.97;;;17.94;51.43
46506;BME280;32220;49.808;9.968;2024-02-15T16:01:48;98884.47;;;17.57;51.38
46506;BME280;32220;49.808;9.968;2024-02-15T16:04:17;98894.50;;;17.55;51.71
46506;BME280;32220;49.808;9.968;2024-02-15T16:06:44;98907.19;;;17.53;52.34
46506;BME280;32220;49.808;9.968;2024-02-15T16:09:14;98899.28;;;17.42;52.23
46506;BME280;32220;49.808;9.968;2024-02-15T16:11:41;98902.75;;;17.33;52.39
46506;BME280;32220;49.808;9.968;2024-02-15T16:14:09;98876.94;;;17.13;53.01
46506;BME280;32220;49.808;9.968;2024-02-15T16:16:38;98902.00;;;17.12;53.21
46506;BME280;32220;49.808;9.968;2024-02-15T16:19:09;98908.91;;;17.05;53.61
46506;BME280;32220;49.808;9.968;2024-02-15T16:21:38;98852.63;;;16.55;53.30
46506;BME280;32220;49.808;9.968;2024-02-15T16:24:06;98875.66;;;16.67;53.73
46506;BME280;32220;49.808;9.968;2024-02-15T16:26:37;98893.53;;;16.67;53.67
46506;BME280;32220;49.808;9.968;2024-02-15T16:29:04;98884.72;;;16.55;54.12
46506;BME280;32220;49.808;9.968;2024-02-15T16:31:32;98877.03;;;16.41;54.26
46506;BME280;32220;49.808;9.968;2024-02-15T16:34:00;98884.31;;;16.39;55.20
46506;BME280;32220;49.808;9.968;2024-02-15T16:36:27;98893.00;;;16.31;55.65
46506;BME280;32220;49.808;9.968;2024-02-15T16:38:55;98896.56;;;16.21;56.08
46506;BME280;32220;49.808;9.968;2024-02-15T16:41:23;98856.09;;;15.84;56.07
46506;BME280;32220;49.808;9.968;2024-02-15T16:43:54;98863.97;;;15.85;57.25
46506;BME280;32220;49.808;9.968;2024-02-15T16:46:22;98873.25;;;15.81;56.82
46506;BME280;32220;49.808;9.968;2024-02-15T16:48:50;98882.72;;;15.74;57.01
46506;BME280;32220;49.808;9.968;2024-02-15T16:51:18;98872.81;;;15.65;57.21
46506;BME280;32220;49.808;9.968;2024-02-15T16:53:48;98886.41;;;15.62;57.35
46506;BME280;32220;49.808;9.968;2024-02-15T16:56:16;98889.59;;;15.56;57.15
46506;BME280;32220;49.808;9.968;2024-02-15T16:58:45;98864.38;;;15.37;57.58
46506;BME280;32220;49.808;9.968;2024-02-15T17:01:16;98884.75;;;15.38;58.01
46506;BME280;32220;49.808;9.968;2024-02-15T17:03:44;98885.38;;;15.31;58.57
46506;BME280;32220;49.808;9.968;2024-02-15T17:06:11;98833.81;;;14.87;58.64
46506;BME280;32220;49.808;9.968;2024-02-15T17:08:39;98865.19;;;15.06;59.02
46506;BME280;32220;49.808;9.968;2024-02-15T17:11:07;98863.00;;;15.00;59.33
46506;BME280;32220;49.808;9.968;2024-02-15T17:13:36;98860.00;;;14.93;59.99
46506;BME280;32220;49.808;9.968;2024-02-15T17:16:07;98872.09;;;14.97;59.91
46506;BME280;32220;49.808;9.968;2024-02-15T17:18:36;98863.25;;;14.86;60.29
46506;BME280;32220;49.808;9.968;2024-02-15T17:21:04;98878.78;;;14.92;60.25
46506;BME280;32220;49.808;9.968;2024-02-15T17:23:32;98878.06;;;14.79;60.21
46506;BME280;32220;49.808;9.968;2024-02-15T17:26:00;98889.69;;;14.78;60.13
46506;BME280;32220;49.808;9.968;2024-02-15T17:28:27;98884.25;;;14.68;60.31
46506;BME280;32220;49.808;9.968;2024-02-15T17:30:55;98898.16;;;14.71;60.47
46506;BME280;32220;49.808;9.968;2024-02-15T17:33:24;98901.53;;;14.62;60.69
46506;BME280;32220;49.808;9.968;2024-02-15T17:35:55;98893.44;;;14.53;61.37
46506;BME280;32220;49.808;9.968;2024-02-15T17:38:23;98872.91;;;14.31;61.74
46506;BME280;32220;49.808;9.968;2024-02-15T17:40:50;98891.03;;;14.26;61.73
46506;BME280;32220;49.808;9.968;2024-02-15T17:43:18;98881.72;;;14.20;61.83
46506;BME280;32220;49.808;9.968;2024-02-15T17:45:46;98886.44;;;14.17;62.48
46506;BME280;32220;49.808;9.968;2024-02-15T17:48:15;98885.34;;;14.08;62.55
46506;BME280;32220;49.808;9.968;2024-02-15T17:50:47;98868.22;;;13.99;63.62
46506;BME280;32220;49.808;9.968;2024-02-15T17:53:17;98891.44;;;13.97;63.90
46506;BME280;32220;49.808;9.968;2024-02-15T17:55:44;98831.03;;;13.52;63.70
46506;BME280;32220;49.808;9.968;2024-02-15T17:58:16;98875.41;;;13.75;64.07
46506;BME280;32220;49.808;9.968;2024-02-15T18:00:44;98853.91;;;13.54;64.98
46506;BME280;32220;49.808;9.968;2024-02-15T18:03:12;98836.94;;;13.44;66.92
46506;BME280;32220;49.808;9.968;2024-02-15T18:05:40;98867.44;;;13.51;66.02
46506;BME280;32220;49.808;9.968;2024-02-15T18:08:12;98881.97;;;13.47;65.94
46506;BME280;32220;49.808;9.968;2024-02-15T18:10:43;98872.22;;;13.35;66.15
46506;BME280;32220;49.808;9.968;2024-02-15T18:13:11;98861.97;;;13.18;66.54
46506;BME280;32220;49.808;9.968;2024-02-15T18:15:40;98833.28;;;12.98;66.45
46506;BME280;32220;49.808;9.968;2024-02-15T18:18:11;98877.34;;;13.25;66.53
46506;BME280;32220;49.808;9.968;2024-02-15T18:20:38;98872.50;;;13.19;66.96
46506;BME280;32220;49.808;9.968;2024-02-15T18:23:07;98852.28;;;13.04;68.16
46506;BME280;32220;49.808;9.968;2024-02-15T18:25:35;98839.22;;;13.01;71.54
46506;BME280;32220;49.808;9.968;2024-02-15T18:28:05;98849.75;;;13.03;72.45
46506;BME280;32220;49.808;9.968;2024-02-15T18:30:33;98843.50;;;12.91;71.22
46506;BME280;32220;49.808;9.968;2024-02-15T18:33:09;98839.59;;;12.84;70.57
46506;BME280;32220;49.808;9.968;2024-02-15T18:35:37;98831.19;;;12.77;70.15
46506;BME280;32220;49.808;9.968;2024-02-15T18:38:07;98862.31;;;12.88;69.70
46506;BME280;32220;49.808;9.968;2024-02-15T18:40:36;98819.84;;;12.63;69.90
46506;BME280;32220;49.808;9.968;2024-02-15T18:43:05;98846.97;;;12.68;69.50
46506;BME280;32220;49.808;9.968;2024-02-15T18:45:34;98857.06;;;12.63;69.59
46506;BME280;32220;49.808;9.968;2024-02-15T18:48:03;98853.69;;;12.61;69.30
46506;BME280;32220;49.808;9.968;2024-02-15T18:50:33;98857.19;;;12.48;69.83
46506;BME280;32220;49.808;9.968;2024-02-15T18:53:02;98862.38;;;12.50;69.81
46506;BME280;32220;49.808;9.968;2024-02-15T18:55:30;98858.78;;;12.38;69.65
46506;BME280;32220;49.808;9.968;2024-02-15T18:58:00;98850.19;;;12.22;69.69
46506;BME280;32220;49.808;9.968;2024-02-15T19:00:29;98846.25;;;12.15;70.08
46506;BME280;32220;49.808;9.968;2024-02-15T19:02:58;98863.69;;;12.19;69.97
46506;BME280;32220;49.808;9.968;2024-02-15T19:05:27;98866.03;;;12.11;69.94
46506;BME280;32220;49.808;9.968;2024-02-15T19:07:55;98866.63;;;12.02;69.98
46506;BME280;32220;49.808;9.968;2024-02-15T19:10:22;98883.97;;;12.07;70.51
46506;BME280;32220;49.808;9.968;2024-02-15T19:12:50;98878.28;;;11.99;70.61
46506;BME280;32220;49.808;9.968;2024-02-15T19:15:19;98871.81;;;11.91;71.14
46506;BME280;32220;49.808;9.968;2024-02-15T19:17:48;98842.31;;;11.82;73.32
46506;BME280;32220;49.808;9.968;2024-02-15T19:20:16;98848.75;;;11.78;74.30
46506;BME280;32220;49.808;9.968;2024-02-15T19:22:43;98841.00;;;11.75;75.94
46506;BME280;32220;49.808;9.968;2024-02-15T19:25:11;98839.19;;;11.76;74.98
46506;BME280;32220;49.808;9.968;2024-02-15T19:27:43;98845.91;;;11.81;74.87
46506;BME280;32220;49.808;9.968;2024-02-15T19:30:12;98843.66;;;11.75;74.47
46506;BME280;32220;49.808;9.968;2024-02-15T19:32:40;98836.66;;;11.74;73.86
46506;BME280;32220;49.808;9.968;2024-02-15T19:35:09;98860.06;;;11.95;73.97
46506;BME280;32220;49.808;9.968;2024-02-15T19:37:37;98852.84;;;11.97;74.08
46506;BME280;32220;49.808;9.968;2024-02-15T19:40:06;98857.91;;;12.00;74.42
46506;BME280;32220;49.808;9.968;2024-02-15T19:42:38;98842.63;;;12.03;74.94
46506;BME280;32220;49.808;9.968;2024-02-15T19:45:06;98834.38;;;11.95;74.48
46506;BME280;32220;49.808;9.968;2024-02-15T19:47:34;98843.06;;;11.97;74.09
46506;BME280;32220;49.808;9.968;2024-02-15T19:50:02;98849.00;;;12.01;73.37
46506;BME280;32220;49.808;9.968;2024-02-15T19:52:32;98835.00;;;11.99;73.42
46506;BME280;32220;49.808;9.968;2024-02-15T19:54:59;98858.78;;;12.13;73.19
46506;BME280;32220;49.808;9.968;2024-02-15T19:57:27;98828.63;;;12.01;75.82
46506;BME280;32220;49.808;9.968;2024-02-15T19:59:54;98821.75;;;11.99;76.63
46506;BME280;32220;49.808;9.968;2024-02-15T20:02:22;98799.41;;;11.88;77.22
46506;BME280;32220;49.808;9.968;2024-02-15T20:04:50;98810.78;;;11.91;77.47
46506;BME280;32220;49.808;9.968;2024-02-15T20:07:17;98812.38;;;11.80;76.99
46506;BME280;32220;49.808;9.968;2024-02-15T20:09:50;98829.72;;;11.99;76.98
46506;BME280;32220;49.808;9.968;2024-02-15T20:12:18;98832.47;;;11.97;76.18
46506;BME280;32220;49.808;9.968;2024-02-15T20:14:49;98790.78;;;11.72;77.25
46506;BME280;32220;49.808;9.968;2024-02-15T20:17:20;98743.03;;;11.47;76.64
46506;BME280;32220;49.808;9.968;2024-02-15T20:19:54;98784.28;;;11.64;76.39
46506;BME280;32220;49.808;9.968;2024-02-15T20:22:23;98803.88;;;11.75;76.61
46506;BME280;32220;49.808;9.968;2024-02-15T20:24:56;98771.38;;;11.59;77.38
46506;BME280;32220;49.808;9.968;2024-02-15T20:28:03;98719.22;;;11.20;77.48
46506;BME280;32220;49.808;9.968;2024-02-15T20:30:50;98732.19;;;11.25;77.73
46506;BME280;32220;49.808;9.968;2024-02-15T20:33:51;98796.09;;;11.60;78.29
46506;BME280;32220;49.808;9.968;2024-02-15T20:36:40;98710.38;;;11.07;79.36
46506;BME280;32220;49.808;9.968;2024-02-15T20:39:18;98757.09;;;11.35;79.10
46506;BME280;32220;49.808;9.968;2024-02-15T20:41:47;98723.00;;;11.16;80.33
46506;BME280;32220;49.808;9.968;2024-02-15T20:44:28;98722.91;;;11.18;80.84
46506;BME280;32220;49.808;9.968;2024-02-15T20:46:59;98705.16;;;10.93;80.42
46506;BME280;32220;49.808;9.968;2024-02-15T20:49:30;98722.75;;;10.94;80.25
46506;BME280;32220;49.808;9.968;2024-02-15T20:51:58;98740.78;;;11.01;79.94
46506;BME280;32220;49.808;9.968;2024-02-15T20:54:38;98763.94;;;11.12;79.83
46506;BME280;32220;49.808;9.968;2024-02-15T20:57:49;98777.31;;;11.10;79.14
46506;BME280;32220;49.808;9.968;2024-02-15T21:00:17;98771.63;;;11.02;79.18
46506;BME280;32220;49.808;9.968;2024-02-15T21:02:45;98767.28;;;11.01;81.96
46506;BME280;32220;49.808;9.968;2024-02-15T21:05:15;98789.13;;;11.05;81.20
46506;BME280;32220;49.808;9.968;2024-02-15T21:07:43;98752.78;;;10.80;80.97
46506;BME280;32220;49.808;9.968;2024-02-15T21:10:11;98794.00;;;10.98;80.75
46506;BME280;32220;49.808;9.968;2024-02-15T21:12:41;98770.38;;;10.81;80.42
46506;BME280;32220;49.808;9.968;2024-02-15T21:15:10;98772.94;;;10.83;80.46
46506;BME280;32220;49.808;9.968;2024-02-15T21:17:39;98790.78;;;10.93;81.38
46506;BME280;32220;49.808;9.968;2024-02-15T21:20:08;98807.34;;;10.97;81.00
46506;BME280;32220;49.808;9.968;2024-02-15T21:22:38;98785.25;;;10.84;81.39
46506;BME280;32220;49.808;9.968;2024-02-15T21:25:06;98778.91;;;10.86;82.72
